Time;durP1;ratioP1;P1;durP2;ratioP2;P2;SDS_P1;SDS_P2;PMS_P1;PMS_P2;Temp;Humidity;BMP_temperature;BMP_pressure;BME280_temperature;BME280_humidity;BME280_pressure;Samples;Min_cycle;Max_cycle;Signal;HPM_P1;HPM_P2
2022/05/28 00:00:59;;;;;;;;;6.00;6.00;;;;;17.52;53.18;102139.66;5061835;28;45818;-53
2022/05/28 00:03:27;;;;;;;;;7.00;5.50;;;;;17.51;52.96;102143.28;5061846;28;45255;-50
2022/05/28 00:05:53;;;;;;;;;5.75;5.75;;;;;17.49;53.07;102134.53;5061729;28;45550;-50
2022/05/28 00:08:18;;;;;;;;;7.00;5.25;;;;;17.47;53.21;102133.78;5061591;28;45161;-53
2022/05/28 00:10:45;;;;;;;;;8.75;5.50;;;;;17.46;53.51;102131.25;5061697;28;45335;-49
2022/05/28 00:13:12;;;;;;;;;6.75;6.00;;;;;17.40;53.62;102135.16;5064070;28;45235;-53
2022/05/28 00:15:38;;;;;;;;;7.50;5.25;;;;;17.37;53.54;102130.00;5061367;28;45399;-53
2022/05/28 00:18:04;;;;;;;;;6.75;5.50;;;;;17.35;53.74;102131.94;5061414;28;45322;-50
2022/05/28 00:20:30;;;;;;;;;8.50;6.25;;;;;17.32;53.79;102123.28;5061632;28;45451;-54
2022/05/28 00:22:56;;;;;;;;;6.00;5.75;;;;;17.30;53.88;102123.41;5061407;28;45311;-54
2022/05/28 00:25:22;;;;;;;;;5.75;4.50;;;;;17.28;53.99;102127.94;5061239;28;46128;-54
2022/05/28 00:27:47;;;;;;;;;2.50;1.75;;;;;17.28;54.02;102126.13;5061617;28;45221;-53
2022/05/28 00:30:15;;;;;;;;;5.00;4.25;;;;;17.28;54.10;102126.13;5061382;28;45172;-54
2022/05/28 00:32:42;;;;;;;;;6.00;5.00;;;;;17.30;54.20;102120.75;5061412;28;45428;-53
2022/05/28 00:35:13;;;;;;;;;9.00;6.50;;;;;17.26;54.26;102114.75;5061231;28;45355;-50
2022/05/28 00:37:39;;;;;;;;;9.00;4.25;;;;;17.24;54.18;102116.66;5061310;28;45374;-49
2022/05/28 00:40:10;;;;;;;;;8.25;4.50;;;;;17.22;54.18;102123.91;5061114;28;45306;-50
2022/05/28 00:42:35;;;;;;;;;4.75;4.75;;;;;17.21;54.29;102119.50;5061061;28;45315;-51
2022/05/28 00:45:01;;;;;;;;;7.00;6.50;;;;;17.19;54.46;102121.41;5061004;28;46004;-50
2022/05/28 00:47:27;;;;;;;;;6.50;6.00;;;;;17.15;54.40;102121.72;5061039;28;45442;-53
2022/05/28 00:49:53;;;;;;;;;14.00;11.75;;;;;17.17;54.54;102119.81;5060803;28;45272;-55
2022/05/28 00:52:22;;;;;;;;;9.50;8.00;;;;;17.17;54.69;102110.03;5061012;28;45589;-50
2022/05/28 00:54:49;;;;;;;;;9.50;9.00;;;;;17.15;54.44;102111.09;5060930;28;46311;-49
2022/05/28 00:57:16;;;;;;;;;10.00;8.75;;;;;17.12;54.54;102106.78;5060765;28;45323;-49
2022/05/28 00:59:43;;;;;;;;;9.00;7.25;;;;;17.10;54.52;102116.69;5060881;28;45271;-50
2022/05/28 01:02:29;;;;;;;;;8.00;7.00;;;;;17.06;54.54;102112.50;5061068;28;45296;-49
2022/05/28 01:05:11;;;;;;;;;7.00;5.25;;;;;17.00;54.65;102113.78;5060741;28;45362;-50
2022/05/28 01:07:42;;;;;;;;;6.25;6.00;;;;;16.93;54.83;102112.47;5061048;28;45267;-54
2022/05/28 01:10:28;;;;;;;;;6.00;6.00;;;;;16.91;54.89;102110.88;5060715;28;45327;-54
2022/05/28 01:13:07;;;;;;;;;9.75;7.00;;;;;16.87;54.93;102112.84;5064103;28;45506;-54
2022/05/28 01:15:37;;;;;;;;;7.00;6.75;;;;;16.85;54.99;102114.75;5060738;28;45421;-54
2022/05/28 01:18:32;;;;;;;;;5.00;4.50;;;;;16.83;55.05;102108.69;5060617;28;45325;-52
2022/05/28 01:21:06;;;;;;;;;8.50;5.75;;;;;16.79;55.27;102108.97;5060697;28;45334;-53
2022/05/28 01:23:41;;;;;;;;;9.50;7.00;;;;;16.74;55.12;102102.13;5060931;28;45343;-49
2022/05/28 01:26:23;;;;;;;;;8.00;7.00;;;;;16.69;55.24;102100.72;5060302;28;45496;-50
2022/05/28 01:29:11;;;;;;;;;8.50;5.50;;;;;16.64;55.46;102092.97;5060584;28;45300;-49
2022/05/28 01:31:38;;;;;;;;;8.00;6.50;;;;;16.62;55.65;102094.91;5060446;28;45464;-50
2022/05/28 01:34:07;;;;;;;;;5.25;4.75;;;;;16.59;55.59;102095.09;5060366;28;45516;-50
2022/05/28 01:36:35;;;;;;;;;8.50;7.00;;;;;16.57;55.71;102096.13;5060468;28;46392;-51
2022/05/28 01:39:01;;;;;;;;;2.75;2.75;;;;;16.53;55.71;102097.28;5060334;28;45366;-52
2022/05/28 01:41:29;;;;;;;;;8.50;7.00;;;;;16.47;55.97;102094.03;5060343;28;45251;-54
2022/05/28 01:43:57;;;;;;;;;6.25;5.25;;;;;16.45;56.07;102089.78;5060186;28;45328;-49
2022/05/28 01:46:28;;;;;;;;;9.00;6.00;;;;;16.43;56.06;102089.88;5060517;28;46119;-51
2022/05/28 01:48:55;;;;;;;;;7.00;6.00;;;;;16.40;56.09;102086.53;5060264;28;45333;-50
2022/05/28 01:51:24;;;;;;;;;9.25;6.50;;;;;16.39;56.39;102085.69;5060446;28;45347;-50
2022/05/28 01:54:07;;;;;;;;;6.00;6.00;;;;;16.40;56.36;102082.06;5060227;28;45411;-54
2022/05/28 01:56:36;;;;;;;;;8.25;6.25;;;;;16.43;56.26;102083.69;5060201;28;46170;-51
2022/05/28 01:59:02;;;;;;;;;8.75;7.50;;;;;16.39;56.47;102083.03;5060190;28;45423;-51
2022/05/28 02:01:28;;;;;;;;;9.50;7.25;;;;;16.39;56.45;102087.50;5060317;28;45308;-50
2022/05/28 02:03:59;;;;;;;;;10.25;6.50;;;;;16.41;56.52;102083.78;5063704;28;45362;-54
2022/05/28 02:06:25;;;;;;;;;6.25;6.00;;;;;16.44;56.56;102088.06;5063509;28;45235;-51
2022/05/28 02:08:52;;;;;;;;;8.00;6.75;;;;;16.43;56.67;102081.03;5063462;28;45299;-53
2022/05/28 02:11:21;;;;;;;;;8.00;6.00;;;;;16.37;56.54;102074.31;5066577;28;45333;-50
2022/05/28 02:14:17;;;;;;;;;8.00;7.00;;;;;16.37;56.63;102070.78;5063657;28;45175;-50
2022/05/28 02:16:55;;;;;;;;;6.00;5.00;;;;;16.38;56.67;102072.50;5063289;28;45535;-54
2022/05/28 02:19:32;;;;;;;;;7.00;6.00;;;;;16.39;56.89;102071.53;5063170;28;45320;-53
2022/05/28 02:22:04;;;;;;;;;9.25;6.50;;;;;16.41;56.96;102069.63;5063678;28;45349;-52
2022/05/28 02:24:37;;;;;;;;;8.25;7.75;;;;;16.41;56.96;102065.16;5063453;28;45240;-50
2022/05/28 02:27:08;;;;;;;;;10.50;7.25;;;;;16.41;56.90;102082.94;5063254;28;46188;-53
2022/05/28 02:29:34;;;;;;;;;7.25;6.25;;;;;16.40;57.04;102063.47;5062902;28;45307;-52
2022/05/28 02:32:16;;;;;;;;;7.25;5.75;;;;;16.42;57.04;102061.56;5063461;28;45432;-49
2022/05/28 02:34:45;;;;;;;;;5.75;5.50;;;;;16.41;57.50;102064.31;5063156;28;45427;-50
2022/05/28 02:37:15;;;;;;;;;9.00;7.00;;;;;16.37;56.84;102058.34;5063022;28;45542;-49
2022/05/28 02:39:41;;;;;;;;;7.25;6.75;;;;;16.35;56.91;102056.72;5063023;28;45211;-50
2022/05/28 02:42:07;;;;;;;;;12.50;7.75;;;;;16.34;56.97;102055.84;5063008;28;45402;-50
2022/05/28 02:44:33;;;;;;;;;7.00;7.00;;;;;16.36;56.86;102058.44;5062997;28;45271;-51
2022/05/28 02:46:59;;;;;;;;;10.50;9.00;;;;;16.35;56.98;102057.59;5062932;28;45399;-51
2022/05/28 02:49:25;;;;;;;;;8.50;6.75;;;;;16.34;57.23;102050.53;5063053;28;45333;-51
2022/05/28 02:51:52;;;;;;;;;12.50;10.25;;;;;16.33;57.15;102047.97;5062879;28;45318;-54
2022/05/28 02:54:18;;;;;;;;;8.50;8.25;;;;;16.30;57.11;102042.88;5063130;28;45219;-52
2022/05/28 02:56:44;;;;;;;;;10.50;9.00;;;;;16.30;57.25;102042.88;5062595;28;45295;-49
2022/05/28 02:59:09;;;;;;;;;8.00;8.00;;;;;16.28;57.44;102042.13;5062729;28;45295;-54
2022/05/28 03:01:35;;;;;;;;;8.25;6.50;;;;;16.27;57.22;102048.34;5062981;28;45236;-51
2022/05/28 03:04:02;;;;;;;;;7.50;7.00;;;;;16.24;57.19;102052.06;5062937;28;45453;-54
2022/05/28 03:06:27;;;;;;;;;14.50;7.75;;;;;16.21;57.48;102044.31;5062670;28;46013;-52
2022/05/28 03:08:53;;;;;;;;;9.75;8.50;;;;;16.19;57.43;102040.84;5062683;28;45303;-52
2022/05/28 03:11:20;;;;;;;;;7.50;7.50;;;;;16.15;57.42;102044.66;5064785;28;45278;-50
2022/05/28 03:13:46;;;;;;;;;10.00;8.00;;;;;16.06;57.38;102042.59;5062322;28;45276;-51
2022/05/28 03:16:12;;;;;;;;;8.50;7.00;;;;;15.99;57.74;102044.75;5062597;28;45252;-52
2022/05/28 03:18:38;;;;;;;;;10.00;6.75;;;;;15.97;57.83;102051.13;5062590;28;45296;-53
2022/05/28 03:21:04;;;;;;;;;10.50;8.00;;;;;15.94;57.93;102049.50;5062662;28;45206;-50
2022/05/28 03:23:30;;;;;;;;;7.00;7.00;;;;;15.91;57.97;102039.91;5062525;28;45279;-49
2022/05/28 03:25:56;;;;;;;;;9.75;7.75;;;;;15.89;58.20;102036.50;5062190;28;45306;-51
2022/05/28 03:28:21;;;;;;;;;10.25;7.50;;;;;15.84;57.96;102038.56;5062396;28;45236;-51
2022/05/28 03:30:47;;;;;;;;;12.75;10.00;;;;;15.81;58.22;102043.22;5062069;28;45483;-50
2022/05/28 03:33:12;;;;;;;;;9.00;6.75;;;;;15.80;58.35;102045.03;5062483;28;45564;-50
2022/05/28 03:35:39;;;;;;;;;9.75;8.00;;;;;15.79;58.44;102047.75;5062174;28;45984;-52
2022/05/28 03:38:06;;;;;;;;;8.25;7.00;;;;;15.73;58.51;102043.69;5062322;28;45299;-50
2022/05/28 03:40:31;;;;;;;;;14.50;10.00;;;;;15.67;58.70;102045.84;5062137;28;45268;-50
2022/05/28 03:42:57;;;;;;;;;11.50;8.50;;;;;15.58;58.63;102045.44;5062434;28;45449;-54
2022/05/28 03:45:25;;;;;;;;;10.00;7.75;;;;;15.51;58.94;102049.38;5061736;28;45429;-52
2022/05/28 03:47:51;;;;;;;;;13.00;9.75;;;;;15.47;59.07;102054.97;5062151;28;45210;-54
2022/05/28 03:50:16;;;;;;;;;10.25;8.75;;;;;15.44;59.00;102049.84;5062109;28;45212;-49
2022/05/28 03:52:42;;;;;;;;;10.75;9.75;;;;;15.42;59.17;102049.94;5062200;28;45334;-52
2022/05/28 03:55:08;;;;;;;;;8.50;7.25;;;;;15.40;59.45;102062.41;5061591;28;46294;-49
2022/05/28 03:57:35;;;;;;;;;16.00;10.00;;;;;15.40;59.28;102069.53;5060627;28;45492;-53
2022/05/28 04:00:01;;;;;;;;;11.75;9.75;;;;;15.40;59.41;102067.72;5061643;28;45330;-52
2022/05/28 04:02:27;;;;;;;;;13.00;8.50;;;;;15.42;59.78;102070.31;5062008;28;45469;-49
2022/05/28 04:04:53;;;;;;;;;12.75;12.75;;;;;15.44;59.78;102069.28;5061704;28;45461;-50
2022/05/28 04:07:19;;;;;;;;;19.25;14.25;;;;;15.43;59.72;102069.38;5061793;28;45263;-52
2022/05/28 04:09:45;;;;;;;;;17.50;11.00;;;;;15.41;59.84;102068.63;5061797;28;45319;-54
2022/05/28 04:12:11;;;;;;;;;11.50;9.50;;;;;15.41;59.58;102076.59;5065489;28;45556;-51
2022/05/28 04:14:37;;;;;;;;;14.75;10.00;;;;;15.38;59.61;102080.25;5061381;28;46193;-52
2022/05/28 04:17:03;;;;;;;;;13.25;11.25;;;;;15.37;59.79;102078.53;5061669;28;45400;-53
2022/05/28 04:19:29;;;;;;;;;13.75;9.50;;;;;15.38;59.83;102079.41;5061572;28;45491;-51
2022/05/28 04:21:54;;;;;;;;;8.00;8.00;;;;;15.33;59.79;102080.53;5061807;28;45264;-50
2022/05/28 04:24:20;;;;;;;;;11.00;8.25;;;;;15.29;60.05;102073.69;5060644;28;45586;-52
2022/05/28 04:26:45;;;;;;;;;8.25;6.75;;;;;15.32;59.95;102075.28;5061304;28;45335;-52
2022/05/28 04:29:11;;;;;;;;;13.00;7.75;;;;;15.33;59.69;102079.69;5061246;28;45456;-53
2022/05/28 04:31:36;;;;;;;;;11.50;8.75;;;;;15.36;59.79;102082.16;5061580;28;45402;-53
2022/05/28 04:34:02;;;;;;;;;8.25;8.25;;;;;15.39;59.75;102079.31;5061279;28;46056;-53
2022/05/28 04:36:28;;;;;;;;;14.00;11.50;;;;;15.42;59.80;102075.63;5061311;28;45677;-49
2022/05/28 04:38:53;;;;;;;;;13.25;7.00;;;;;15.43;59.81;102072.03;5061586;28;45276;-50
2022/05/28 04:41:19;;;;;;;;;11.00;7.25;;;;;15.41;59.87;102077.44;5061358;28;45166;-51
2022/05/28 04:43:44;;;;;;;;;12.25;11.00;;;;;15.39;60.12;102078.44;5060769;28;45413;-49
2022/05/28 04:46:11;;;;;;;;;12.00;10.50;;;;;15.38;59.90;102079.41;5061228;28;45239;-49
2022/05/28 04:48:36;;;;;;;;;8.75;8.00;;;;;15.31;60.04;102074.44;5059825;28;45161;-51
2022/05/28 04:51:02;;;;;;;;;9.50;6.25;;;;;15.30;59.98;102085.16;5061487;28;45551;-51
2022/05/28 04:53:28;;;;;;;;;12.00;9.00;;;;;15.27;60.18;102085.34;5060722;28;46040;-53
2022/05/28 04:55:53;;;;;;;;;7.75;7.50;;;;;15.24;59.93;102089.00;5061087;28;45312;-53
2022/05/28 04:58:20;;;;;;;;;10.50;8.75;;;;;15.21;59.81;102088.34;5061148;28;45417;-49
2022/05/28 05:00:46;;;;;;;;;9.50;8.50;;;;;15.21;60.00;102088.34;5060954;28;45318;-51
2022/05/28 05:03:12;;;;;;;;;12.75;7.75;;;;;15.19;60.20;102085.78;5060794;28;45168;-51
2022/05/28 05:05:38;;;;;;;;;10.25;7.00;;;;;15.19;60.18;102084.94;5060980;28;45196;-50
2022/05/28 05:08:05;;;;;;;;;9.25;8.00;;;;;15.18;60.29;102089.38;5060981;28;45209;-54
2022/05/28 05:10:31;;;;;;;;;13.50;8.00;;;;;15.17;60.37;102095.63;5060951;28;45391;-54
2022/05/28 05:12:58;;;;;;;;;11.75;9.25;;;;;15.17;60.13;102089.47;5064205;28;45493;-53
2022/05/28 05:15:23;;;;;;;;;9.00;9.00;;;;;15.17;60.12;102094.78;5060733;28;45401;-50
2022/05/28 05:17:48;;;;;;;;;13.00;9.75;;;;;15.18;60.54;102091.19;5060771;28;45302;-54
2022/05/28 05:20:14;;;;;;;;;12.00;9.75;;;;;15.20;60.51;102089.28;5060944;28;45323;-53
2022/05/28 05:22:40;;;;;;;;;9.75;8.50;;;;;15.21;60.44;102091.00;5060547;28;46088;-48
2022/05/28 05:25:07;;;;;;;;;10.00;7.75;;;;;15.23;60.30;102094.41;5060648;28;45430;-48
2022/05/28 05:27:33;;;;;;;;;11.25;7.00;;;;;15.24;60.33;102090.81;5060800;28;45272;-50
2022/05/28 05:29:59;;;;;;;;;8.50;7.50;;;;;15.31;60.51;102092.16;5060713;28;45200;-50
2022/05/28 05:32:26;;;;;;;;;11.25;8.25;;;;;15.34;60.25;102090.22;5060580;28;45537;-49
2022/05/28 05:34:52;;;;;;;;;12.75;8.00;;;;;15.35;60.18;102091.91;5060607;28;45413;-48
2022/05/28 05:37:17;;;;;;;;;15.00;8.00;;;;;15.39;60.22;102089.06;5062990;28;45318;-50
2022/05/28 05:39:43;;;;;;;;;12.50;9.25;;;;;15.42;60.32;102087.09;5063028;28;45610;-50
2022/05/28 05:42:08;;;;;;;;;9.75;7.50;;;;;15.44;60.08;102077.25;5063811;28;45894;-49
2022/05/28 05:44:34;;;;;;;;;9.00;8.00;;;;;15.43;60.26;102083.50;5063893;28;45466;-51
2022/05/28 05:47:00;;;;;;;;;9.50;7.00;;;;;15.45;60.61;102086.91;5064146;28;45303;-50
2022/05/28 05:49:26;;;;;;;;;9.00;8.50;;;;;15.51;60.35;102081.25;5064124;28;45268;-50
2022/05/28 05:51:52;;;;;;;;;12.25;8.25;;;;;15.58;60.19;102087.91;5063846;28;45313;-51
2022/05/28 05:54:19;;;;;;;;;14.50;10.00;;;;;15.69;59.65;102081.16;5063900;28;45248;-50
2022/05/28 05:56:45;;;;;;;;;15.50;10.00;;;;;15.74;60.02;102087.91;5063715;28;45414;-52
2022/05/28 05:59:11;;;;;;;;;12.75;10.75;;;;;15.82;60.22;102098.94;5063829;28;45295;-52
2022/05/28 06:01:37;;;;;;;;;10.00;8.25;;;;;15.89;60.13;102094.13;5063695;28;45273;-51
2022/05/28 06:04:02;;;;;;;;;11.00;8.50;;;;;15.91;59.83;102093.06;5063815;28;45508;-51
2022/05/28 06:06:28;;;;;;;;;15.50;10.00;;;;;15.93;59.90;102092.09;5063646;28;45319;-53
2022/05/28 06:08:53;;;;;;;;;16.00;10.75;;;;;15.95;59.83;102095.53;5063991;28;45453;-53
2022/05/28 06:11:19;;;;;;;;;12.00;10.50;;;;;15.98;59.92;102101.53;5067584;28;45988;-53
2022/05/28 06:13:44;;;;;;;;;10.00;9.25;;;;;16.03;60.00;102103.88;5063460;28;45400;-51
2022/05/28 06:16:10;;;;;;;;;11.00;8.00;;;;;16.06;59.73;102095.75;5063634;28;45236;-50
2022/05/28 06:18:36;;;;;;;;;13.00;9.00;;;;;16.14;59.85;102098.78;5063707;28;45356;-51
2022/05/28 06:21:02;;;;;;;;;10.00;8.75;;;;;16.23;59.67;102098.22;5063400;28;45313;-52
2022/05/28 06:23:28;;;;;;;;;19.00;9.50;;;;;16.26;59.65;102097.16;5063457;28;45236;-49
2022/05/28 06:25:54;;;;;;;;;8.25;8.00;;;;;16.32;59.68;102096.81;5063224;28;45195;-49
2022/05/28 06:28:20;;;;;;;;;9.25;8.75;;;;;16.36;59.58;102096.53;5063541;28;45280;-50
2022/05/28 06:30:47;;;;;;;;;11.00;9.00;;;;;16.39;59.56;102099.00;5062946;28;45434;-51
2022/05/28 06:33:13;;;;;;;;;12.25;8.00;;;;;16.46;59.72;102100.31;5063315;28;45343;-53
2022/05/28 06:35:39;;;;;;;;;11.25;8.25;;;;;16.54;59.40;102096.31;5063242;28;45259;-50
2022/05/28 06:38:05;;;;;;;;;13.00;10.50;;;;;16.58;59.39;102096.03;5063634;28;45323;-52
2022/05/28 06:40:31;;;;;;;;;9.50;8.50;;;;;16.62;59.57;102099.38;5062767;28;45946;-51
2022/05/28 06:42:57;;;;;;;;;12.50;7.50;;;;;16.70;59.19;102103.28;5062927;28;45378;-53
2022/05/28 06:45:24;;;;;;;;;14.00;9.25;;;;;16.73;59.44;102091.56;5062776;28;45224;-52
2022/05/28 06:47:50;;;;;;;;;11.75;8.00;;;;;16.70;59.40;102095.28;5062680;28;45163;-54
2022/05/28 06:53:02;;;;;;;;;14.00;9.50;;;;;16.62;59.38;102096.69;5063134;28;45235;-53
2022/05/28 06:55:28;;;;;;;;;13.50;10.00;;;;;16.69;59.49;102098.91;5062505;28;45561;-51
2022/05/28 06:57:54;;;;;;;;;13.25;9.00;;;;;16.69;59.44;102098.91;5063273;28;45341;-50
2022/05/28 07:00:20;;;;;;;;;10.75;8.25;;;;;16.73;59.61;102102.22;5062484;28;46041;-51
2022/05/28 07:02:45;;;;;;;;;16.75;8.50;;;;;16.75;59.52;102095.03;5061348;28;45326;-53
2022/05/28 07:05:13;;;;;;;;;12.75;8.00;;;;;16.77;59.73;102090.44;5062646;28;45475;-50
2022/05/28 07:07:38;;;;;;;;;13.50;8.75;;;;;16.82;59.49;102090.13;5062993;28;45184;-53
2022/05/28 07:10:05;;;;;;;;;16.75;13.00;;;;;16.85;59.63;102085.47;5062336;28;45995;-54
2022/05/28 07:12:30;;;;;;;;;14.25;10.50;;;;;16.86;59.60;102087.19;5065743;28;45244;-53
2022/05/28 07:14:56;;;;;;;;;16.75;11.75;;;;;16.91;59.21;102094.88;5062154;28;45211;-54
2022/05/28 07:17:22;;;;;;;;;12.25;10.00;;;;;17.00;59.26;102092.47;5062568;28;45406;-54
2022/05/28 07:19:49;;;;;;;;;18.25;12.00;;;;;17.09;59.44;102082.19;5062151;28;45803;-54
2022/05/28 07:22:15;;;;;;;;;12.50;11.25;;;;;17.18;59.22;102079.78;5062441;28;45381;-51
2022/05/28 07:24:40;;;;;;;;;18.25;12.00;;;;;17.23;59.18;102077.66;5062413;28;45339;-50
2022/05/28 07:27:06;;;;;;;;;14.00;9.00;;;;;17.25;59.24;102065.09;5062433;28;45311;-53
2022/05/28 07:29:31;;;;;;;;;19.50;11.50;;;;;17.32;59.11;102065.56;5062006;28;45810;-52
2022/05/28 07:31:57;;;;;;;;;14.50;12.00;;;;;17.40;58.93;102070.38;5062537;28;45315;-53
2022/05/28 07:34:22;;;;;;;;;15.75;12.75;;;;;17.42;58.84;102063.97;5062269;28;45336;-54
2022/05/28 07:36:48;;;;;;;;;13.00;10.50;;;;;17.47;58.70;102069.00;5062661;28;45204;-52
2022/05/28 07:39:14;;;;;;;;;12.00;10.25;;;;;17.50;58.81;102068.78;5061806;28;46347;-50
2022/05/28 07:41:40;;;;;;;;;17.50;9.50;;;;;17.55;58.31;102075.53;5062260;28;45335;-53
2022/05/28 07:44:05;;;;;;;;;16.00;13.00;;;;;17.64;58.27;102070.53;5061863;28;45332;-52
2022/05/28 07:46:32;;;;;;;;;11.00;7.00;;;;;17.69;58.17;102069.25;5060977;28;45451;-51
2022/05/28 07:49:00;;;;;;;;;13.75;9.75;;;;;17.69;57.87;102068.38;5061810;28;46212;-52
2022/05/28 07:51:26;;;;;;;;;17.25;10.75;;;;;17.74;58.00;102071.63;5062106;28;45335;-51
2022/05/28 07:53:52;;;;;;;;;14.25;13.75;;;;;17.73;57.46;102069.94;5061900;28;45304;-56
2022/05/28 07:56:18;;;;;;;;;13.75;12.00;;;;;17.67;57.35;102062.31;5062086;28;45453;-52
2022/05/28 07:58:44;;;;;;;;;14.50;11.00;;;;;17.69;57.65;102066.56;5061248;28;45455;-53
2022/05/28 08:01:30;;;;;;;;;16.75;11.50;;;;;17.77;57.54;102063.41;5060752;28;45231;-52
2022/05/28 08:03:59;;;;;;;;;11.75;11.75;;;;;17.84;57.56;102062.88;5061703;28;45290;-50
2022/05/28 08:06:26;;;;;;;;;15.50;13.00;;;;;17.90;57.54;102063.44;5061866;28;45325;-53
2022/05/28 08:08:51;;;;;;;;;14.50;13.00;;;;;17.91;57.44;102060.66;5061644;28;45296;-54
2022/05/28 08:11:18;;;;;;;;;18.25;13.50;;;;;17.92;57.39;102062.38;5065221;28;45440;-54
2022/05/28 08:13:44;;;;;;;;;15.50;13.00;;;;;17.81;56.96;102059.59;5061675;28;45166;-54
2022/05/28 08:16:09;;;;;;;;;4.50;4.50;;;;;17.75;56.97;102063.53;5061688;28;45449;-54
2022/05/28 08:18:37;;;;;;;;;22.50;13.25;;;;;17.79;56.93;102062.38;5061471;28;45271;-54
2022/05/28 08:23:48;;;;;;;;;13.00;10.25;;;;;17.88;57.02;102068.03;5061432;28;45434;-50
2022/05/28 08:26:14;;;;;;;;;8.50;8.50;;;;;17.93;56.69;102068.53;5061551;28;45410;-53
2022/05/28 08:28:41;;;;;;;;;12.25;8.75;;;;;17.97;56.02;102073.56;5061149;28;46068;-52
2022/05/28 08:31:07;;;;;;;;;12.25;10.50;;;;;17.98;55.89;102067.28;5061397;28;45307;-52
2022/05/28 08:33:33;;;;;;;;;15.00;12.00;;;;;17.97;55.81;102057.56;5061370;28;45279;-52
2022/05/28 08:35:59;;;;;;;;;14.25;12.00;;;;;18.03;56.28;102061.63;5061304;28;45479;-51
2022/05/28 08:38:26;;;;;;;;;14.00;10.50;;;;;18.01;56.22;102069.75;5061154;28;45704;-52
2022/05/28 08:40:59;;;;;;;;;17.75;13.00;;;;;17.98;56.27;102067.28;5060782;28;45318;-53
2022/05/28 08:43:32;;;;;;;;;17.25;12.25;;;;;17.98;55.72;102058.44;5060918;28;45227;-50
2022/05/28 08:45:58;;;;;;;;;13.50;12.00;;;;;18.04;56.12;102052.69;5061289;28;45195;-49
2022/05/28 08:48:48;;;;;;;;;17.75;12.00;;;;;18.14;56.03;102051.06;5059908;28;45344;-50
2022/05/28 08:51:19;;;;;;;;;10.25;10.00;;;;;18.19;55.89;102043.59;5061290;28;45276;-51
2022/05/28 08:53:58;;;;;;;;;10.50;9.75;;;;;18.21;55.63;102041.66;5060870;28;45410;-50
2022/05/28 08:56:26;;;;;;;;;12.75;9.25;;;;;18.27;55.25;102046.59;5061216;28;45405;-53
2022/05/28 08:59:03;;;;;;;;;12.50;9.75;;;;;18.37;55.01;102050.28;5060532;28;45399;-53
2022/05/28 09:01:30;;;;;;;;;16.00;11.00;;;;;18.50;55.28;102041.44;5061009;28;45298;-54
2022/05/28 09:04:01;;;;;;;;;13.00;10.00;;;;;18.59;55.86;102036.28;5060976;28;45330;-52
2022/05/28 09:06:36;;;;;;;;;12.00;8.00;;;;;18.67;56.86;102033.94;5061179;28;45394;-50
2022/05/28 09:09:04;;;;;;;;;11.25;10.25;;;;;18.75;57.16;102032.53;5060934;28;46720;-52
2022/05/28 09:11:40;;;;;;;;;13.25;9.75;;;;;18.77;57.13;102033.25;5065519;28;45450;-50
2022/05/28 09:14:24;;;;;;;;;8.00;6.50;;;;;18.83;56.29;102022.13;5064508;28;45214;-54
2022/05/28 09:16:52;;;;;;;;;11.00;9.00;;;;;18.86;56.28;102022.75;5064610;28;45232;-54
2022/05/28 09:19:30;;;;;;;;;11.00;8.00;;;;;19.01;55.96;102020.75;5064286;28;46194;-53
2022/05/28 09:21:56;;;;;;;;;9.00;7.00;;;;;19.10;55.45;102019.22;5064429;28;45326;-54
2022/05/28 09:24:23;;;;;;;;;11.75;10.00;;;;;19.14;55.31;102024.22;5064009;28;45430;-54
2022/05/28 09:27:04;;;;;;;;;11.00;9.25;;;;;19.18;54.99;102015.00;5064428;28;45537;-54
2022/05/28 09:29:42;;;;;;;;;11.50;8.25;;;;;19.24;55.15;102021.72;5063846;28;46169;-52
2022/05/28 09:32:27;;;;;;;;;12.75;10.25;;;;;19.27;55.39;102018.78;5064289;28;45326;-51
2022/05/28 09:34:55;;;;;;;;;8.75;8.00;;;;;19.25;55.27;102026.06;5052126;28;45263;-56
2022/05/28 09:37:34;;;;;;;;;12.75;9.50;;;;;19.18;55.08;102016.81;5064060;28;45247;-54
2022/05/28 09:40:10;;;;;;;;;10.75;9.00;;;;;19.11;55.03;102008.41;5063878;28;45344;-52
2022/05/28 09:42:41;;;;;;;;;11.50;7.00;;;;;19.09;55.00;101998.81;5063842;28;45418;-52
2022/05/28 09:45:16;;;;;;;;;8.25;6.50;;;;;19.09;55.23;101997.00;5063932;28;45218;-54
2022/05/28 09:47:50;;;;;;;;;8.50;8.00;;;;;19.19;55.59;101994.47;5064209;28;45228;-53
2022/05/28 09:50:23;;;;;;;;;9.75;7.50;;;;;19.38;55.20;101991.28;5063771;28;45430;-54
2022/05/28 09:55:41;;;;;;;;;12.00;7.75;;;;;19.63;55.20;101979.56;5063637;28;45281;-49
2022/05/28 09:58:06;;;;;;;;;9.00;6.75;;;;;19.76;55.59;101974.97;5063998;28;45335;-50
2022/05/28 10:00:32;;;;;;;;;8.00;6.00;;;;;19.78;55.11;101973.88;5063534;28;45389;-50
2022/05/28 10:05:55;;;;;;;;;5.75;5.75;;;;;20.03;54.72;101964.75;5063857;28;45348;-53
2022/05/28 10:08:33;;;;;;;;;9.50;7.75;;;;;20.14;54.20;101963.03;5063591;28;45501;-54
2022/05/28 10:11:05;;;;;;;;;11.75;9.50;;;;;20.13;54.44;101964.88;5064847;28;46169;-52
2022/05/28 10:13:45;;;;;;;;;6.75;6.00;;;;;20.13;54.02;101964.88;5063844;28;45243;-54
2022/05/28 10:16:13;;;;;;;;;5.50;5.50;;;;;20.03;53.78;101962.09;5063535;28;45284;-52
2022/05/28 10:18:42;;;;;;;;;7.75;6.25;;;;;19.95;53.54;101964.53;5062171;28;45506;-54
2022/05/28 10:21:15;;;;;;;;;6.75;6.00;;;;;19.88;53.43;101963.31;5063175;28;46272;-48
2022/05/28 10:23:44;;;;;;;;;8.75;8.00;;;;;19.81;53.19;101970.09;5062380;28;45153;-52
2022/05/28 10:26:18;;;;;;;;;6.00;5.00;;;;;19.75;53.32;101965.25;5063235;28;45322;-53
2022/05/28 10:28:48;;;;;;;;;6.00;4.50;;;;;19.70;52.94;101962.09;5063330;28;45295;-50
2022/05/28 10:31:28;;;;;;;;;6.75;4.75;;;;;19.62;53.05;101965.34;5062971;28;46300;-51
2022/05/28 10:33:54;;;;;;;;;7.00;5.00;;;;;19.58;52.72;101955.00;5063135;28;45389;-53
2022/05/28 10:36:27;;;;;;;;;7.00;6.00;;;;;19.67;52.88;101959.63;5063104;28;45351;-53
2022/05/28 10:39:07;;;;;;;;;5.75;5.75;;;;;19.72;52.78;101962.81;5063159;28;45381;-50
2022/05/28 10:41:35;;;;;;;;;10.25;6.25;;;;;19.82;52.59;101947.72;5063056;28;45409;-49
2022/05/28 10:44:00;;;;;;;;;8.50;5.00;;;;;20.04;52.60;101955.75;5062575;28;45350;-53
2022/05/28 10:46:45;;;;;;;;;5.00;4.00;;;;;20.22;52.11;101950.78;5063104;28;45207;-52
2022/05/28 10:49:36;;;;;;;;;4.50;2.00;;;;;20.22;51.89;101947.22;5063076;28;45280;-52
2022/05/28 10:52:07;;;;;;;;;9.50;7.50;;;;;20.14;51.56;101947.00;5061363;28;45412;-53
2022/05/28 10:54:57;;;;;;;;;3.50;3.50;;;;;20.07;51.29;101946.66;5062991;28;45392;-54
2022/05/28 10:57:40;;;;;;;;;6.50;5.25;;;;;19.95;50.71;101940.44;5063125;28;45306;-55
2022/05/28 11:00:11;;;;;;;;;4.75;4.00;;;;;19.96;50.38;101933.28;5062418;28;45268;-55
2022/05/28 11:02:55;;;;;;;;;7.25;4.25;;;;;20.04;50.24;101941.53;5062912;28;46447;-54
2022/05/28 11:05:47;;;;;;;;;11.25;6.50;;;;;20.03;50.44;101950.53;5062501;28;45255;-52
2022/05/28 11:08:39;;;;;;;;;5.50;3.00;;;;;19.97;50.40;101940.31;5062767;28;45329;-55
2022/05/28 11:11:10;;;;;;;;;4.50;3.00;;;;;19.89;50.10;101932.06;5064193;28;45414;-54
2022/05/28 11:14:16;;;;;;;;;3.00;3.00;;;;;20.01;49.63;101934.63;5062232;28;46132;-54
2022/05/28 11:16:47;;;;;;;;;4.75;4.00;;;;;20.17;50.08;101923.53;5062418;28;45310;-54
2022/05/28 11:19:19;;;;;;;;;3.25;3.00;;;;;20.17;49.55;101920.84;5062728;28;45274;-51
2022/05/28 11:22:05;;;;;;;;;7.00;4.00;;;;;20.10;49.79;101930.34;5062727;28;45395;-54
2022/05/28 11:24:54;;;;;;;;;4.00;4.00;;;;;20.15;49.14;101919.28;5062034;28;45401;-53
2022/05/28 11:27:30;;;;;;;;;3.75;3.75;;;;;20.28;48.86;101920.81;5062319;28;45470;-51
2022/05/28 11:30:14;;;;;;;;;7.25;3.00;;;;;20.34;49.15;101923.00;5061038;28;45306;-51
2022/05/28 11:32:55;;;;;;;;;2.25;2.25;;;;;20.29;49.21;101916.31;5062422;28;45596;-52
2022/05/28 11:35:34;;;;;;;;;4.50;3.25;;;;;20.26;49.04;101917.44;5062033;28;45992;-54
2022/05/28 11:38:19;;;;;;;;;3.00;3.00;;;;;20.30;48.49;101899.28;5062409;28;45303;-53
2022/05/28 11:40:56;;;;;;;;;3.50;3.50;;;;;20.45;48.29;101903.41;5062065;28;45288;-54